Arch Rock, Pennsylvania
Current Conditions -  °F | °C
As of 1:53 AM on Sunday 26 Oct 2014 (Local Time) from KSEG Reporting Station
Clear Clear  
Wind Chill: 17°   Ceiling: Unl
Heat Index: 17°   Visibility: 10mi
Dew Point:   Wind: 9mph
Humidity: 43%   Direction: 280°W
Pressure: 29.64"   Gusts: 21mph
Location:  40.5853°N, 77.3611°W
Report Text: KSEG 260553Z AUTO 28008G18KT 240V300 10SM CLR 17/04 A2964 RMK AO2 SLP034 T01670039 10178 20106 55002
Loading
Personal Weather Stations






























Interactive Weather Map New forecast layout! Learn more

10-Day Weather Forecast

Advertisements
Track Severe Weather on mobile